createdAt,value
2022-08-01T00:00:08.960Z,9.43
2022-08-01T00:02:39.291Z,11.47
2022-08-01T00:05:08.147Z,9.27
2022-08-01T00:07:36.364Z,8.53
2022-08-01T00:10:09.055Z,8.60
2022-08-01T00:12:36.300Z,7.30
2022-08-01T00:15:05.024Z,9.70
2022-08-01T00:17:32.464Z,9.07
2022-08-01T00:19:59.344Z,8.33
2022-08-01T00:22:26.378Z,8.57
2022-08-01T00:24:53.327Z,7.40
2022-08-01T00:27:20.285Z,6.77
2022-08-01T00:30:10.153Z,7.07
2022-08-01T00:32:35.006Z,7.93
2022-08-01T00:35:01.996Z,7.07
2022-08-01T00:37:29.100Z,6.23
2022-08-01T00:39:56.122Z,6.40
2022-08-01T00:42:23.173Z,6.27
2022-08-01T00:44:50.385Z,5.97
2022-08-01T00:47:17.433Z,5.83
2022-08-01T00:49:44.682Z,6.00
2022-08-01T00:52:11.805Z,6.27
2022-08-01T00:54:39.902Z,7.13
2022-08-01T00:57:10.223Z,6.77
2022-08-01T00:59:38.087Z,5.67
2022-08-01T01:02:14.900Z,5.70
2022-08-01T01:04:44.098Z,6.30
2022-08-01T01:07:20.409Z,5.63
2022-08-01T01:09:59.914Z,7.17
2022-08-01T01:12:40.521Z,6.73
2022-08-01T01:15:14.484Z,7.00
2022-08-01T01:18:04.589Z,7.93
2022-08-01T01:20:37.053Z,7.30
2022-08-01T01:23:11.605Z,7.17
2022-08-01T01:25:38.492Z,6.57
2022-08-01T01:28:11.164Z,6.07
2022-08-01T01:30:42.205Z,7.33
2022-08-01T01:33:12.358Z,7.80
2022-08-01T01:35:47.264Z,7.30
2022-08-01T01:38:23.932Z,6.70
2022-08-01T01:40:53.817Z,6.70
2022-08-01T01:43:28.988Z,5.90
2022-08-01T01:46:03.613Z,6.67
2022-08-01T01:48:31.951Z,5.60
2022-08-01T01:51:00.771Z,6.77
2022-08-01T01:53:29.880Z,5.83
2022-08-01T01:55:59.013Z,5.40
2022-08-01T01:58:28.709Z,6.17
2022-08-01T02:00:58.564Z,5.87
2022-08-01T02:03:32.226Z,5.20
2022-08-01T02:06:01.964Z,4.80
2022-08-01T02:08:32.146Z,5.13
2022-08-01T02:11:20.291Z,5.00
2022-08-01T02:13:59.549Z,6.00
2022-08-01T02:16:30.153Z,4.90
2022-08-01T02:18:57.718Z,5.53
2022-08-01T02:21:30.481Z,4.70
2022-08-01T02:24:05.837Z,5.10
2022-08-01T02:26:35.046Z,4.70
2022-08-01T02:29:08.204Z,4.80
2022-08-01T02:31:39.712Z,4.37
2022-08-01T02:34:10.653Z,4.77
2022-08-01T02:36:38.356Z,4.53
2022-08-01T02:39:10.007Z,4.43
2022-08-01T02:41:43.556Z,4.60
2022-08-01T02:44:15.591Z,4.53
2022-08-01T02:46:56.590Z,5.83
2022-08-01T02:49:27.263Z,4.57
2022-08-01T02:51:56.734Z,4.60
2022-08-01T02:54:24.886Z,5.07
2022-08-01T02:56:54.553Z,4.70
2022-08-01T02:59:26.629Z,4.60
2022-08-01T03:01:56.536Z,4.47
2022-08-01T03:04:25.584Z,4.87
2022-08-01T03:06:55.383Z,4.53
2022-08-01T03:09:23.980Z,4.10
2022-08-01T03:11:52.217Z,3.90
2022-08-01T03:14:21.801Z,4.10
2022-08-01T03:16:51.235Z,4.10
2022-08-01T03:19:19.959Z,4.70
2022-08-01T03:21:50.440Z,4.47
2022-08-01T03:24:19.082Z,4.37
2022-08-01T03:26:47.265Z,4.07
2022-08-01T03:29:18.345Z,4.10
2022-08-01T03:31:47.273Z,4.40
2022-08-01T03:34:14.696Z,4.37
2022-08-01T03:36:54.405Z,4.53
2022-08-01T03:39:26.133Z,4.47
2022-08-01T03:41:58.893Z,4.53
2022-08-01T03:44:29.845Z,4.43
2022-08-01T03:47:03.868Z,4.53
2022-08-01T03:49:33.624Z,4.63
2022-08-01T03:52:05.855Z,4.37
2022-08-01T03:54:36.148Z,4.53
2022-08-01T03:57:04.912Z,4.07
2022-08-01T03:59:35.461Z,5.70
2022-08-01T04:02:03.160Z,4.43
2022-08-01T04:04:30.700Z,4.40
2022-08-01T04:06:57.794Z,5.40
2022-08-01T04:09:24.748Z,5.20
2022-08-01T04:11:51.722Z,4.93
2022-08-01T04:14:18.796Z,4.10
2022-08-01T04:16:45.753Z,4.70
2022-08-01T04:19:13.560Z,4.70
2022-08-01T04:21:41.226Z,5.20
2022-08-01T04:24:16.598Z,4.80
2022-08-01T04:26:46.569Z,4.50
2022-08-01T04:29:17.436Z,4.63
2022-08-01T04:31:47.661Z,4.43
2022-08-01T04:34:18.461Z,4.43
2022-08-01T04:36:47.034Z,4.83
2022-08-01T04:39:16.091Z,4.30
2022-08-01T04:41:44.474Z,4.33
2022-08-01T04:44:12.149Z,6.03
2022-08-01T04:46:40.068Z,4.97
2022-08-01T04:49:10.081Z,4.40
2022-08-01T04:51:37.184Z,7.73
2022-08-01T04:54:05.227Z,4.30
2022-08-01T04:56:35.137Z,5.53
2022-08-01T04:59:20.525Z,4.10
2022-08-01T05:01:51.913Z,5.27
2022-08-01T05:04:19.595Z,4.10
2022-08-01T05:06:46.558Z,4.43
2022-08-01T05:09:13.501Z,4.90
2022-08-01T05:11:40.393Z,5.57
2022-08-01T05:14:07.834Z,6.20
2022-08-01T05:16:35.088Z,5.57
2022-08-01T05:19:03.598Z,5.93
2022-08-01T05:21:30.702Z,8.50
2022-08-01T05:23:59.006Z,3.70
2022-08-01T05:26:26.129Z,4.07
2022-08-01T05:28:53.613Z,6.40
2022-08-01T05:31:20.642Z,5.03
2022-08-01T05:33:47.557Z,3.90
2022-08-01T05:36:14.480Z,5.83
2022-08-01T05:38:41.817Z,5.23
2022-08-01T05:41:08.861Z,5.33
2022-08-01T05:43:35.900Z,3.87
2022-08-01T05:46:02.908Z,5.10
2022-08-01T05:48:29.968Z,4.50
2022-08-01T05:50:58.895Z,3.83
2022-08-01T05:53:26.601Z,3.70
2022-08-01T05:55:53.741Z,4.77
2022-08-01T05:58:20.838Z,3.80
2022-08-01T06:00:47.853Z,5.17
2022-08-01T06:03:15.428Z,4.03
2022-08-01T06:05:42.476Z,4.50
2022-08-01T06:08:09.933Z,5.00
2022-08-01T06:10:36.960Z,4.63
2022-08-01T06:13:04.161Z,3.63
2022-08-01T06:15:34.183Z,4.47
2022-08-01T06:18:01.575Z,4.07
2022-08-01T06:20:28.653Z,4.50
2022-08-01T06:22:55.841Z,3.23
2022-08-01T06:25:23.434Z,3.27
2022-08-01T06:27:50.825Z,5.70
2022-08-01T06:30:18.440Z,4.87
2022-08-01T06:32:45.601Z,4.63
2022-08-01T06:35:12.757Z,4.63
2022-08-01T06:37:39.756Z,4.37
2022-08-01T06:40:13.380Z,4.30
2022-08-01T06:42:43.631Z,5.37
2022-08-01T06:45:12.487Z,5.10
2022-08-01T06:47:40.869Z,5.93
2022-08-01T06:50:11.625Z,5.17
2022-08-01T06:52:39.095Z,7.47
2022-08-01T06:55:06.624Z,4.77
2022-08-01T06:57:36.351Z,5.70
2022-08-01T07:00:12.600Z,4.23
2022-08-01T07:02:40.053Z,4.43
2022-08-01T07:05:07.317Z,5.20
2022-08-01T07:07:34.588Z,4.80
2022-08-01T07:10:01.821Z,5.03
2022-08-01T07:12:28.977Z,4.00
2022-08-01T07:14:56.040Z,4.10
2022-08-01T07:17:23.088Z,3.87
2022-08-01T07:19:50.026Z,3.80
2022-08-01T07:22:23.324Z,4.10
2022-08-01T07:24:54.258Z,3.83
2022-08-01T07:27:24.215Z,5.27
2022-08-01T07:29:53.749Z,4.07
2022-08-01T07:32:40.784Z,5.73
2022-08-01T07:35:28.285Z,4.00
2022-08-01T07:37:55.264Z,4.50
2022-08-01T07:40:42.401Z,4.13
2022-08-01T07:43:29.305Z,3.43
2022-08-01T07:46:16.372Z,4.07
2022-08-01T07:49:03.747Z,3.87
2022-08-01T07:52:04.214Z,4.33
2022-08-01T07:54:52.865Z,4.17
2022-08-01T07:57:40.115Z,3.20
2022-08-01T08:00:28.101Z,3.77
2022-08-01T08:03:15.614Z,3.87
2022-08-01T08:06:02.689Z,3.50
2022-08-01T08:08:50.155Z,3.57
2022-08-01T08:11:37.206Z,3.50
2022-08-01T08:14:32.220Z,3.53
2022-08-01T08:17:19.966Z,4.70
2022-08-01T08:20:09.060Z,4.80
2022-08-01T08:22:57.134Z,3.50
2022-08-01T08:25:44.114Z,3.40
2022-08-01T08:28:31.495Z,4.53
2022-08-01T08:31:24.570Z,5.37
2022-08-01T08:33:52.990Z,3.50
2022-08-01T08:36:20.029Z,4.33
2022-08-01T08:38:46.978Z,4.10
2022-08-01T08:41:37.847Z,3.43
2022-08-01T08:44:28.073Z,3.60
2022-08-01T08:47:20.490Z,8.27
2022-08-01T08:50:09.221Z,4.83
2022-08-01T08:52:59.522Z,5.20
2022-08-01T08:55:55.453Z,4.07
2022-08-01T08:58:46.816Z,3.40
2022-08-01T09:01:34.087Z,2.87
2022-08-01T09:04:21.295Z,3.20
2022-08-01T09:07:12.152Z,3.07
2022-08-01T09:09:59.431Z,4.00
2022-08-01T09:12:46.661Z,3.23
2022-08-01T09:15:13.848Z,3.77
2022-08-01T09:17:43.720Z,3.47
2022-08-01T09:20:24.754Z,6.37
2022-08-01T09:23:11.650Z,3.23
2022-08-01T09:26:13.768Z,3.70
2022-08-01T09:29:01.194Z,3.73
2022-08-01T09:31:49.411Z,4.17
2022-08-01T09:34:44.612Z,3.37
2022-08-01T09:37:37.062Z,3.17
2022-08-01T09:40:24.866Z,2.50
2022-08-01T09:43:32.328Z,2.87
2022-08-01T09:46:25.517Z,3.10
2022-08-01T09:49:26.259Z,5.00
2022-08-01T09:52:41.109Z,2.40
2022-08-01T09:55:30.814Z,2.73
2022-08-01T09:58:18.040Z,2.83
2022-08-01T10:01:19.508Z,3.90
2022-08-01T10:04:06.494Z,2.93
2022-08-01T10:06:57.789Z,2.60
2022-08-01T10:09:53.425Z,2.57
2022-08-01T10:12:45.204Z,4.27
2022-08-01T10:15:38.009Z,4.07
2022-08-01T10:18:27.953Z,2.47
2022-08-01T10:21:15.783Z,2.63
2022-08-01T10:24:03.562Z,2.53
2022-08-01T10:26:54.356Z,2.77
2022-08-01T10:29:58.953Z,2.83
2022-08-01T10:32:50.709Z,5.73
2022-08-01T10:35:46.783Z,2.30
2022-08-01T10:38:35.581Z,2.67
2022-08-01T10:41:25.358Z,2.27
2022-08-01T10:44:14.599Z,3.47
2022-08-01T10:47:10.017Z,2.90
2022-08-01T10:50:10.298Z,2.47
2022-08-01T10:53:05.631Z,2.40
2022-08-01T10:56:31.910Z,3.87
2022-08-01T10:59:49.353Z,3.60
2022-08-01T11:02:31.986Z,4.40
2022-08-01T11:05:04.317Z,3.13
2022-08-01T11:07:55.596Z,2.67
2022-08-01T11:10:37.765Z,4.90
2022-08-01T11:13:13.618Z,2.73
2022-08-01T11:15:50.259Z,3.93
2022-08-01T11:18:38.097Z,3.53
2022-08-01T11:21:59.454Z,3.47
2022-08-01T11:23:54.594Z,2.73
2022-08-01T11:26:28.889Z,4.80
2022-08-01T11:29:23.143Z,2.53
2022-08-01T11:31:51.238Z,2.30
2022-08-01T11:34:18.415Z,3.63
2022-08-01T11:37:01.701Z,3.13
2022-08-01T11:39:30.422Z,2.53
2022-08-01T11:42:19.189Z,2.30
2022-08-01T11:44:51.345Z,3.70
2022-08-01T11:47:18.485Z,2.73
2022-08-01T11:49:56.007Z,2.10
2022-08-01T11:52:34.478Z,2.53
2022-08-01T11:55:24.389Z,2.30
2022-08-01T11:58:08.969Z,3.20
2022-08-01T12:00:56.561Z,3.73
2022-08-01T12:03:33.744Z,2.97
2022-08-01T12:06:01.573Z,2.67
2022-08-01T12:08:30.952Z,2.30
2022-08-01T12:11:02.556Z,4.57
2022-08-01T12:13:40.762Z,3.33
2022-08-01T12:16:09.223Z,2.43
2022-08-01T12:18:43.841Z,3.83
2022-08-01T12:21:11.294Z,2.07
2022-08-01T12:23:38.262Z,2.43
2022-08-01T12:26:06.381Z,2.30
2022-08-01T12:28:40.604Z,3.43
2022-08-01T12:31:07.884Z,2.40
2022-08-01T12:33:35.230Z,3.07
2022-08-01T12:36:02.465Z,4.17
2022-08-01T12:38:31.303Z,2.57
2022-08-01T12:40:59.059Z,1.70
2022-08-01T12:43:28.064Z,2.73
2022-08-01T12:46:00.239Z,2.07
2022-08-01T12:48:28.133Z,2.93
2022-08-01T12:50:58.825Z,3.10
2022-08-01T12:53:27.223Z,1.57
2022-08-01T12:56:08.712Z,4.13
2022-08-01T12:58:36.229Z,3.00
2022-08-01T13:01:26.447Z,2.70
2022-08-01T13:04:22.377Z,1.80
2022-08-01T13:07:14.461Z,1.93
2022-08-01T13:10:11.158Z,1.40
2022-08-01T13:12:59.626Z,3.43
2022-08-01T13:15:48.007Z,3.80
2022-08-01T13:18:50.159Z,2.87
2022-08-01T13:21:53.679Z,3.03
2022-08-01T13:24:46.963Z,2.37
2022-08-01T13:27:54.072Z,2.30
2022-08-01T13:30:45.776Z,3.00
2022-08-01T13:33:34.289Z,3.27
2022-08-01T13:36:28.312Z,2.40
2022-08-01T13:39:14.615Z,4.20
2022-08-01T13:41:41.646Z,3.93
2022-08-01T13:44:09.982Z,2.40
2022-08-01T13:46:38.326Z,1.10
2022-08-01T13:49:37.468Z,3.83
2022-08-01T13:52:25.590Z,3.23
2022-08-01T13:55:12.442Z,3.20
2022-08-01T13:57:59.609Z,2.20
2022-08-01T14:00:46.658Z,2.97
2022-08-01T14:03:34.055Z,3.10
2022-08-01T14:06:21.716Z,2.40
2022-08-01T14:09:17.741Z,1.70
2022-08-01T14:12:05.507Z,2.60
2022-08-01T14:14:55.070Z,2.27
2022-08-01T14:17:47.982Z,3.07
2022-08-01T14:20:35.289Z,2.03
2022-08-01T14:23:22.650Z,1.97
2022-08-01T14:26:12.332Z,1.87
2022-08-01T14:29:00.189Z,3.20
2022-08-01T14:31:47.346Z,1.60
2022-08-01T14:34:34.227Z,1.40
2022-08-01T14:37:21.292Z,2.50
2022-08-01T14:40:08.281Z,1.30
2022-08-01T14:43:00.029Z,2.20
2022-08-01T14:45:47.061Z,2.50
2022-08-01T14:48:34.305Z,1.77
2022-08-01T14:51:23.703Z,1.80
2022-08-01T14:54:10.813Z,2.07
2022-08-01T14:56:57.695Z,3.67
2022-08-01T14:59:44.756Z,1.97
2022-08-01T15:02:31.733Z,1.70
2022-08-01T15:05:18.797Z,2.17
2022-08-01T15:08:10.545Z,2.30
2022-08-01T15:10:57.700Z,1.20
2022-08-01T15:13:44.644Z,1.77
2022-08-01T15:16:31.737Z,1.50
2022-08-01T15:19:18.692Z,1.70
2022-08-01T15:22:06.588Z,2.57
2022-08-01T15:24:57.277Z,2.37
2022-08-01T15:27:45.993Z,2.90
2022-08-01T15:30:33.149Z,1.30
2022-08-01T15:33:20.653Z,1.93
2022-08-01T15:36:07.601Z,3.67
2022-08-01T15:38:59.519Z,2.40
2022-08-01T15:41:46.376Z,2.50
2022-08-01T15:44:33.637Z,2.07
2022-08-01T15:47:22.594Z,1.77
2022-08-01T15:50:12.565Z,3.40
2022-08-01T15:52:59.513Z,2.03
2022-08-01T15:55:52.617Z,1.67
2022-08-01T15:58:40.128Z,1.93
2022-08-01T16:01:27.150Z,2.57
2022-08-01T16:04:14.913Z,3.20
2022-08-01T16:06:42.628Z,1.30
2022-08-01T16:09:10.132Z,1.93
2022-08-01T16:11:50.811Z,2.00
2022-08-01T16:14:18.155Z,1.33
2022-08-01T16:16:45.119Z,1.77
2022-08-01T16:19:19.479Z,1.63
2022-08-01T16:21:47.877Z,1.47
2022-08-01T16:24:17.473Z,3.23
2022-08-01T16:26:44.513Z,1.77
2022-08-01T16:29:11.484Z,2.07
2022-08-01T16:31:51.048Z,1.70
2022-08-01T16:34:25.556Z,2.30
2022-08-01T16:36:53.627Z,1.27
2022-08-01T16:39:23.476Z,2.23
2022-08-01T16:41:55.345Z,1.40
2022-08-01T16:44:26.774Z,1.67
2022-08-01T16:47:05.076Z,1.27
2022-08-01T16:49:32.902Z,1.73
2022-08-01T16:52:00.182Z,1.60
2022-08-01T16:54:27.928Z,1.27
2022-08-01T16:56:56.196Z,1.83
2022-08-01T16:59:25.083Z,1.40
2022-08-01T17:01:59.079Z,2.90
2022-08-01T17:04:29.621Z,1.83
2022-08-01T17:06:56.910Z,2.00
2022-08-01T17:09:23.978Z,1.73
2022-08-01T17:11:51.057Z,1.17
2022-08-01T17:14:18.718Z,1.93
2022-08-01T17:16:45.639Z,2.70
2022-08-01T17:19:14.825Z,1.00
2022-08-01T17:21:42.576Z,4.50
2022-08-01T17:24:11.614Z,1.80
2022-08-01T17:26:43.644Z,1.40
2022-08-01T17:29:10.521Z,1.27
2022-08-01T17:31:37.487Z,3.97
2022-08-01T17:34:04.573Z,3.17
2022-08-01T17:36:31.940Z,2.97
2022-08-01T17:38:59.762Z,3.50
2022-08-01T17:41:26.797Z,3.20
2022-08-01T17:43:53.708Z,2.70
2022-08-01T17:46:20.641Z,1.50
2022-08-01T17:48:47.999Z,1.20
2022-08-01T17:51:19.414Z,2.83
2022-08-01T17:53:55.629Z,1.57
2022-08-01T17:56:28.842Z,1.67
2022-08-01T17:58:56.526Z,2.07
2022-08-01T18:01:26.725Z,3.07
2022-08-01T18:03:55.707Z,3.67
2022-08-01T18:06:25.645Z,3.37
2022-08-01T18:08:55.497Z,2.00
2022-08-01T18:11:27.582Z,1.33
2022-08-01T18:13:56.106Z,1.50
2022-08-01T18:16:23.867Z,2.83
2022-08-01T18:18:50.792Z,1.80
2022-08-01T18:21:18.167Z,1.30
2022-08-01T18:23:51.619Z,1.90
2022-08-01T18:26:20.835Z,2.27
2022-08-01T18:28:47.793Z,1.30
2022-08-01T18:31:17.730Z,1.30
2022-08-01T18:33:45.278Z,1.30
2022-08-01T18:36:21.106Z,1.93
2022-08-01T18:39:00.574Z,2.03
2022-08-01T18:41:29.023Z,1.30
2022-08-01T18:44:04.308Z,2.17
2022-08-01T18:46:34.997Z,2.27
2022-08-01T18:49:02.155Z,2.57
2022-08-01T18:51:29.392Z,1.63
2022-08-01T18:53:58.011Z,2.33
2022-08-01T18:56:25.049Z,1.50
2022-08-01T18:58:53.514Z,2.93
2022-08-01T19:01:21.379Z,2.00
2022-08-01T19:03:48.369Z,2.40
2022-08-01T19:06:15.505Z,2.80
2022-08-01T19:08:43.468Z,2.70
2022-08-01T19:11:10.612Z,1.97
2022-08-01T19:13:38.652Z,2.13
2022-08-01T19:16:05.717Z,2.17
2022-08-01T19:18:33.775Z,2.17
2022-08-01T19:21:07.105Z,2.50
2022-08-01T19:23:52.969Z,1.63
2022-08-01T19:26:28.487Z,1.93
2022-08-01T19:29:01.320Z,3.30
2022-08-01T19:31:29.694Z,1.63
2022-08-01T19:33:58.373Z,2.90
2022-08-01T19:36:26.962Z,3.07
2022-08-01T19:38:55.589Z,2.20
2022-08-01T19:41:23.129Z,2.13
2022-08-01T19:43:51.539Z,2.57
2022-08-01T19:46:18.759Z,3.80
2022-08-01T19:48:51.503Z,2.50
2022-08-01T19:51:21.866Z,5.73
2022-08-01T19:53:55.202Z,2.10
2022-08-01T19:56:25.985Z,2.97
2022-08-01T19:59:00.351Z,2.67
2022-08-01T20:01:28.034Z,3.47
2022-08-01T20:03:56.144Z,2.50
2022-08-01T20:06:24.578Z,2.50
2022-08-01T20:08:54.674Z,2.17
2022-08-01T20:11:23.470Z,2.27
2022-08-01T20:13:51.537Z,1.97
2022-08-01T20:16:19.211Z,2.77
2022-08-01T20:18:46.218Z,3.30
2022-08-01T20:21:14.197Z,2.30
2022-08-01T20:23:43.092Z,2.53
2022-08-01T20:26:10.340Z,2.10
2022-08-01T20:28:41.815Z,1.87
2022-08-01T20:31:09.791Z,1.67
2022-08-01T20:33:42.556Z,3.13
2022-08-01T20:36:12.362Z,2.60
2022-08-01T20:38:54.775Z,2.13
2022-08-01T20:41:26.060Z,2.37
2022-08-01T20:43:55.247Z,2.13
2022-08-01T20:46:29.657Z,1.97
2022-08-01T20:48:58.574Z,2.83
2022-08-01T20:51:27.062Z,2.47
2022-08-01T20:53:55.615Z,1.77
2022-08-01T20:56:37.397Z,1.97
2022-08-01T20:59:04.864Z,1.67
2022-08-01T21:01:45.655Z,1.83
2022-08-01T21:04:30.996Z,3.60
2022-08-01T21:07:36.570Z,2.00
2022-08-01T21:10:07.172Z,1.93
2022-08-01T21:13:03.440Z,1.57
2022-08-01T21:15:31.980Z,2.60
2022-08-01T21:18:16.477Z,1.40
2022-08-01T21:20:49.237Z,2.20
2022-08-01T21:23:39.163Z,2.13
2022-08-01T21:26:28.896Z,1.33
2022-08-01T21:29:18.268Z,1.67
2022-08-01T21:32:08.287Z,1.30
2022-08-01T21:34:56.101Z,1.30
2022-08-01T21:37:43.045Z,1.50
2022-08-01T21:40:10.653Z,2.23
2022-08-01T21:42:39.843Z,1.20
2022-08-01T21:45:09.762Z,1.20
2022-08-01T21:47:38.083Z,2.03
2022-08-01T21:50:06.499Z,3.77
2022-08-01T21:52:47.003Z,1.30
2022-08-01T21:55:35.172Z,1.27
2022-08-01T21:58:24.075Z,1.30
2022-08-01T22:00:54.279Z,1.87
2022-08-01T22:03:35.632Z,1.40
2022-08-01T22:06:04.356Z,1.70
2022-08-01T22:08:36.949Z,1.50
2022-08-01T22:11:06.817Z,1.50
2022-08-01T22:13:37.478Z,2.63
2022-08-01T22:16:06.482Z,1.77
2022-08-01T22:18:35.853Z,1.73
2022-08-01T22:21:03.925Z,1.77
2022-08-01T22:23:36.926Z,1.73
2022-08-01T22:26:08.622Z,1.97
2022-08-01T22:28:37.592Z,1.23
2022-08-01T22:31:06.831Z,2.73
2022-08-01T22:33:36.691Z,2.57
2022-08-01T22:36:06.219Z,1.50
2022-08-01T22:38:34.006Z,2.63
2022-08-01T22:41:04.343Z,1.77
2022-08-01T22:43:59.939Z,1.70
2022-08-01T22:46:51.321Z,2.13
2022-08-01T22:49:48.695Z,1.90
2022-08-01T22:52:27.964Z,2.17
2022-08-01T22:55:03.308Z,2.73
2022-08-01T22:58:03.357Z,3.97
2022-08-01T23:00:32.636Z,1.87
2022-08-01T23:03:12.195Z,3.63
2022-08-01T23:05:52.503Z,3.03
2022-08-01T23:08:21.008Z,1.83
2022-08-01T23:10:48.424Z,1.87
2022-08-01T23:13:17.540Z,1.97
2022-08-01T23:15:52.308Z,3.07
2022-08-01T23:18:21.165Z,3.13
2022-08-01T23:20:50.145Z,3.70
2022-08-01T23:23:19.127Z,3.27
2022-08-01T23:26:00.641Z,3.77
2022-08-01T23:28:28.628Z,4.40
2022-08-01T23:30:56.234Z,2.33
2022-08-01T23:33:23.620Z,2.63
2022-08-01T23:35:50.922Z,3.07
2022-08-01T23:38:18.494Z,3.33
2022-08-01T23:40:45.605Z,2.73
2022-08-01T23:43:17.138Z,4.57
2022-08-01T23:46:04.721Z,5.07
2022-08-01T23:48:35.647Z,3.17
2022-08-01T23:51:04.489Z,3.63
2022-08-01T23:53:31.879Z,3.10
2022-08-01T23:56:02.662Z,3.23
2022-08-01T23:58:30.480Z,3.97
